KDHT/DHT METAR and TAF weather

Enter ICAO airport designator
Station Type Date Time Source
KDHT METAR 2020/07/11 04:53 UTC NOAA

KDHT 110453Z AUTO 15009KT 10SM CLR 28/14 A3009 RMK AO2 SLP119 T02780139


Station Type Date Time Source
KDHT Decoded METAR 2020/07/11 04:53 UTC NOAA

DALHART MUNICIPAL AIRPORT, TX, United States (KDHT) 36-01N 102-33W 1217M
Jul 11, 2020 - 12:53 AM EDT / 2020.07.11 0453 UTC
Wind: from the SSE (150 degrees) at 10 MPH (9 KT):0
Visibility: 10 mile(s):0
Sky conditions: clear
Temperature: 82.0 F (27.8 C)
Dew Point: 57.0 F (13.9 C)
Relative Humidity: 42%
Pressure (altimeter): 30.09 in. Hg (1018 hPa)
ob: KDHT 110453Z AUTO 15009KT 10SM CLR 28/14 A3009 RMK AO2 SLP119 T02780139
cycle: 5

Station Type Date Time Source
KDHT TAF 2020/07/11 06:22 UTC NOAA

TAF KDHT 110520Z 1106/1206 16009KT P6SM FEW250
FM111000 21009KT P6SM FEW250
FM111400 29011KT P6SM SKC
FM111600 36015KT P6SM FEW250
FM112000 04015KT P6SM SKC

Example: see airport list